Time;durP1;ratioP1;P1;durP2;ratioP2;P2;SDS_P1;SDS_P2;PMS_P1;PMS_P2;Temp;Humidity;BMP_temperature;BMP_pressure;BME280_temperature;BME280_humidity;BME280_pressure;Samples;Min_cycle;Max_cycle;Signal;HPM_P1;HPM_P2
2024/02/10 00:04:00;;;;;;;2.00;1.20;;;20.40;47.80;;;;;;10355921;28;20460;-50
2024/02/10 00:09:05;;;;;;;1.20;1.10;;;20.50;47.50;;;;;;10353506;28;20050;-50
2024/02/10 00:14:07;;;;;;;1.38;1.05;;;20.60;47.20;;;;;;10355253;28;20493;-49
2024/02/10 00:19:09;;;;;;;1.75;1.20;;;20.50;47.40;;;;;;10354284;28;20052;-48
2024/02/10 00:24:12;;;;;;;1.20;1.10;;;20.60;47.20;;;;;;10351303;28;20499;-47
2024/02/10 00:29:14;;;;;;;1.42;1.10;;;20.70;46.80;;;;;;10362810;28;20045;-53
2024/02/10 00:34:15;;;;;;;1.17;1.05;;;20.60;47.00;;;;;;10355155;28;20056;-49
2024/02/10 00:39:18;;;;;;;1.20;1.10;;;20.70;46.80;;;;;;10352305;28;20415;-49
2024/02/10 00:44:21;;;;;;;1.30;1.20;;;20.60;46.90;;;;;;10357201;28;20054;-47
2024/02/10 00:49:24;;;;;;;1.50;1.25;;;20.60;46.80;;;;;;10355221;28;20054;-48
2024/02/10 00:54:27;;;;;;;1.10;1.00;;;20.60;46.80;;;;;;10352503;28;20100;-47
2024/02/10 00:59:31;;;;;;;1.20;1.00;;;20.70;46.80;;;;;;10349927;28;20057;-50
2024/02/10 01:04:33;;;;;;;1.33;0.95;;;20.60;46.70;;;;;;10355110;28;20049;-48
2024/02/10 01:09:38;;;;;;;1.63;1.10;;;20.60;46.60;;;;;;10354367;28;20160;-50
2024/02/10 01:14:40;;;;;;;1.35;1.13;;;20.70;46.60;;;;;;10352878;28;20050;-48
2024/02/10 01:19:49;;;;;;;1.00;0.93;;;20.80;46.20;;;;;;10358816;28;20073;-50
2024/02/10 01:24:53;;;;;;;1.02;0.93;;;20.70;47.00;;;;;;10358457;28;20109;-49
2024/02/10 01:29:56;;;;;;;1.13;0.93;;;20.70;46.30;;;;;;10357135;28;20050;-48
2024/02/10 01:34:58;;;;;;;1.42;1.10;;;20.60;46.50;;;;;;10360573;28;20042;-48
2024/02/10 01:40:01;;;;;;;1.10;1.00;;;20.60;46.40;;;;;;10356654;28;20137;-47
2024/02/10 01:45:03;;;;;;;1.10;1.00;;;20.60;46.30;;;;;;10363765;28;20038;-48
2024/02/10 01:50:06;;;;;;;1.20;1.10;;;20.60;46.40;;;;;;10364891;28;20050;-50
2024/02/10 01:55:10;;;;;;;1.40;1.17;;;20.60;46.30;;;;;;10354378;28;20056;-47
2024/02/10 02:00:16;;;;;;;1.23;1.10;;;20.60;46.30;;;;;;10361695;28;20050;-48
2024/02/10 02:05:18;;;;;;;1.23;1.13;;;20.60;46.20;;;;;;10358780;28;20096;-50
2024/02/10 02:10:22;;;;;;;1.38;1.10;;;20.60;46.10;;;;;;10359936;28;20053;-48
2024/02/10 02:15:27;;;;;;;1.63;1.10;;;20.60;46.30;;;;;;10352168;28;20050;-47
2024/02/10 02:20:29;;;;;;;0.93;0.82;;;20.50;46.20;;;;;;10349785;28;20046;-55
2024/02/10 02:25:34;;;;;;;1.40;1.10;;;20.50;46.20;;;;;;10351174;28;20423;-51
2024/02/10 02:30:36;;;;;;;0.93;0.90;;;20.60;46.10;;;;;;10355426;28;20052;-50
2024/02/10 02:35:40;;;;;;;1.50;0.95;;;20.50;46.30;;;;;;10357084;28;20049;-50
2024/02/10 02:40:43;;;;;;;1.45;1.00;;;20.50;46.10;;;;;;10359964;28;20048;-47
2024/02/10 02:45:44;;;;;;;1.08;0.98;;;20.40;46.20;;;;;;10355810;28;20050;-48
2024/02/10 02:50:46;;;;;;;1.13;1.02;;;20.50;46.20;;;;;;10362521;28;20507;-48
2024/02/10 02:55:49;;;;;;;1.10;1.00;;;20.40;46.20;;;;;;10360703;28;20511;-48
2024/02/10 03:00:51;;;;;;;1.10;1.00;;;20.50;46.10;;;;;;10364289;28;20414;-48
2024/02/10 03:05:53;;;;;;;1.08;1.00;;;20.40;46.10;;;;;;10361699;28;20042;-47
2024/02/10 03:10:56;;;;;;;1.20;1.10;;;20.50;46.10;;;;;;10357778;28;20045;-47
2024/02/10 03:16:00;;;;;;;1.30;1.20;;;20.30;46.30;;;;;;10358775;28;20065;-47
2024/02/10 03:21:02;;;;;;;1.20;1.10;;;20.40;46.00;;;;;;10357712;28;20132;-51
2024/02/10 03:26:05;;;;;;;1.48;1.38;;;20.50;45.90;;;;;;10354725;28;20563;-47
2024/02/10 03:31:07;;;;;;;1.08;0.98;;;20.50;46.00;;;;;;10350842;28;20054;-48
2024/02/10 03:36:09;;;;;;;1.40;1.30;;;20.40;46.00;;;;;;10352509;28;20042;-47
2024/02/10 03:41:13;;;;;;;1.10;1.00;;;20.40;45.90;;;;;;10357119;28;20133;-50
2024/02/10 03:46:16;;;;;;;1.20;1.10;;;20.30;46.10;;;;;;10356013;28;20038;-50
2024/02/10 03:51:18;;;;;;;1.23;0.90;;;20.40;45.90;;;;;;10358672;28;20095;-50
2024/02/10 03:56:23;;;;;;;1.02;0.90;;;20.40;45.90;;;;;;10354707;28;20055;-49
2024/02/10 04:01:25;;;;;;;1.33;1.17;;;20.40;45.80;;;;;;10354543;28;20053;-55
2024/02/10 04:06:28;;;;;;;1.80;1.10;;;20.40;46.00;;;;;;10359440;28;20046;-47
2024/02/10 04:11:31;;;;;;;1.88;1.10;;;20.40;46.60;;;;;;10355017;28;20077;-49
2024/02/10 04:16:33;;;;;;;4.53;1.27;;;20.60;46.50;;;;;;10362190;28;20048;-49
2024/02/10 04:21:35;;;;;;;0.95;0.93;;;20.70;46.40;;;;;;10356876;28;20058;-49
2024/02/10 04:26:40;;;;;;;4.65;1.20;;;20.80;46.30;;;;;;10355230;28;20064;-48
2024/02/10 04:31:42;;;;;;;0.93;0.93;;;20.80;46.40;;;;;;10354935;28;20508;-48
2024/02/10 04:36:43;;;;;;;1.30;0.90;;;20.80;46.20;;;;;;10352658;28;20048;-50
2024/02/10 04:41:46;;;;;;;1.73;0.93;;;20.90;46.00;;;;;;10350698;28;20077;-48
2024/02/10 04:46:48;;;;;;;2.00;1.00;;;20.90;46.10;;;;;;10354478;28;20056;-49
2024/02/10 04:51:49;;;;;;;0.93;0.82;;;21.10;46.00;;;;;;10354364;28;20065;-51
2024/02/10 04:56:53;;;;;;;1.15;1.00;;;21.20;45.70;;;;;;10349998;28;20037;-47
2024/02/10 05:01:55;;;;;;;1.00;0.90;;;21.30;45.50;;;;;;10350838;28;20157;-48
2024/02/10 05:06:57;;;;;;;1.30;1.00;;;21.30;45.50;;;;;;10348673;28;20062;-47
2024/02/10 05:12:00;;;;;;;1.77;0.90;;;21.20;45.50;;;;;;10352047;28;20042;-48
2024/02/10 05:17:01;;;;;;;1.05;0.95;;;21.20;45.50;;;;;;10355359;28;20038;-51
2024/02/10 05:22:13;;;;;;;1.02;0.90;;;21.20;45.40;;;;;;10353424;28;20049;-48
2024/02/10 05:27:16;;;;;;;1.00;0.90;;;21.40;45.40;;;;;;10357084;28;20479;-49
2024/02/10 05:32:18;;;;;;;1.00;0.90;;;21.40;45.30;;;;;;10358629;28;20042;-46
2024/02/10 05:37:19;;;;;;;3.22;1.00;;;21.40;45.20;;;;;;10357027;28;20052;-48
2024/02/10 05:42:22;;;;;;;1.65;1.00;;;21.50;45.30;;;;;;10347730;28;20042;-49
2024/02/10 05:47:24;;;;;;;1.20;0.90;;;21.60;45.20;;;;;;10348528;28;20048;-53
2024/02/10 05:52:25;;;;;;;2.20;1.00;;;21.70;45.20;;;;;;10359284;28;20060;-48
2024/02/10 05:57:28;;;;;;;1.45;0.93;;;21.70;45.00;;;;;;10363048;28;20038;-50
2024/02/10 06:02:30;;;;;;;0.80;0.80;;;21.80;44.90;;;;;;10364475;28;20054;-48
2024/02/10 06:07:35;;;;;;;1.25;1.15;;;21.80;44.90;;;;;;10362391;28;20046;-45
2024/02/10 06:12:39;;;;;;;1.20;0.93;;;21.90;44.60;;;;;;10358143;28;20050;-51
2024/02/10 06:17:41;;;;;;;1.10;1.00;;;21.60;45.00;;;;;;10357202;28;20049;-47
2024/02/10 06:22:47;;;;;;;0.90;0.90;;;21.60;45.30;;;;;;10353338;28;20061;-47
2024/02/10 06:27:54;;;;;;;0.98;0.88;;;21.60;45.30;;;;;;10357713;28;20125;-51
2024/02/10 06:32:56;;;;;;;1.88;1.10;;;21.70;45.40;;;;;;10360346;28;20104;-48
2024/02/10 06:37:58;;;;;;;1.42;1.17;;;21.80;46.00;;;;;;10363703;28;20049;-49
2024/02/10 06:43:02;;;;;;;4.65;1.20;;;21.70;46.40;;;;;;10358672;28;20415;-46
2024/02/10 06:48:07;;;;;;;1.52;1.20;;;21.80;47.00;;;;;;10366827;28;20132;-47
2024/02/10 06:53:09;;;;;;;3.35;1.25;;;21.80;47.40;;;;;;10360855;28;20105;-50
2024/02/10 06:58:14;;;;;;;4.40;1.55;;;21.80;47.70;;;;;;10356520;28;20042;-47
2024/02/10 07:03:17;;;;;;;3.85;1.27;;;21.90;47.90;;;;;;10360719;28;20131;-47
2024/02/10 07:08:19;;;;;;;4.25;1.25;;;22.00;48.00;;;;;;10360631;28;20046;-48
2024/02/10 07:13:22;;;;;;;6.60;1.20;;;22.10;48.30;;;;;;10360727;28;20149;-50
2024/02/10 07:18:23;;;;;;;3.83;1.65;;;22.20;48.50;;;;;;10360554;28;20042;-47
2024/02/10 07:23:26;;;;;;;16.13;4.05;;;22.20;48.70;;;;;;10357151;28;20053;-48
2024/02/10 07:28:29;;;;;;;14.77;4.88;;;22.10;48.80;;;;;;10357838;28;20429;-45
2024/02/10 07:33:31;;;;;;;14.45;4.93;;;22.00;48.60;;;;;;10350482;28;20050;-48
2024/02/10 07:38:33;;;;;;;17.17;4.93;;;22.00;48.00;;;;;;10361021;28;20138;-48
2024/02/10 07:43:36;;;;;;;18.40;5.25;;;22.00;47.70;;;;;;10354108;28;20077;-45
2024/02/10 07:48:38;;;;;;;12.77;5.10;;;22.00;47.50;;;;;;10317839;28;20050;-51
2024/02/10 07:53:44;;;;;;;13.23;5.00;;;22.00;47.00;;;;;;10360836;28;20046;-48
2024/02/10 07:58:47;;;;;;;10.43;5.13;;;22.00;46.90;;;;;;10317015;28;20330;-43
2024/02/10 08:03:49;;;;;;;9.30;4.90;;;21.90;46.70;;;;;;10353345;28;20500;-49
2024/02/10 08:08:51;;;;;;;11.10;4.80;;;22.00;46.40;;;;;;10356079;28;20051;-44
2024/02/10 08:13:54;;;;;;;10.40;4.20;;;22.00;46.40;;;;;;10357675;28;20068;-48
2024/02/10 08:18:55;;;;;;;10.93;3.83;;;22.10;46.50;;;;;;10354637;28;20042;-48
2024/02/10 08:23:57;;;;;;;8.20;3.80;;;22.30;46.70;;;;;;10362101;28;20053;-49
2024/02/10 08:29:00;;;;;;;8.48;4.70;;;22.30;46.60;;;;;;10357017;28;20050;-46
2024/02/10 08:34:02;;;;;;;6.93;4.65;;;22.40;46.30;;;;;;10356433;28;20047;-49
2024/02/10 08:39:06;;;;;;;7.22;4.65;;;22.30;46.20;;;;;;10354456;28;20124;-46
2024/02/10 08:44:09;;;;;;;9.77;5.57;;;22.30;46.00;;;;;;10357171;28;20057;-46
2024/02/10 08:49:11;;;;;;;10.32;5.38;;;22.60;43.80;;;;;;10357732;28;20048;-51
2024/02/10 08:54:14;;;;;;;8.07;5.25;;;22.30;43.80;;;;;;10357758;28;20050;-49
2024/02/10 08:59:17;;;;;;;8.65;5.13;;;22.10;44.60;;;;;;10361517;28;20045;-52
2024/02/10 09:04:19;;;;;;;7.13;3.88;;;22.10;45.00;;;;;;10359429;28;20125;-50
2024/02/10 09:09:20;;;;;;;10.68;4.78;;;22.00;45.30;;;;;;10356346;28;20484;-49
2024/02/10 09:14:23;;;;;;;42.97;8.63;;;22.20;46.70;;;;;;10353785;28;20050;-48
2024/02/10 09:19:25;;;;;;;87.40;18.75;;;22.30;47.00;;;;;;10357812;28;20064;-47
2024/02/10 09:24:27;;;;;;;94.47;21.13;;;22.60;46.40;;;;;;10361864;28;20050;-47
2024/02/10 09:29:30;;;;;;;69.32;19.30;;;22.60;46.10;;;;;;10359603;28;20049;-49
2024/02/10 09:34:31;;;;;;;55.35;15.15;;;22.10;46.90;;;;;;10363244;28;20141;-50
2024/02/10 09:39:37;;;;;;;41.42;13.80;;;22.00;46.80;;;;;;10359516;28;20049;-51
2024/02/10 09:44:40;;;;;;;33.33;11.40;;;22.00;46.70;;;;;;10357911;28;20149;-48
2024/02/10 09:49:42;;;;;;;35.58;11.38;;;22.00;46.50;;;;;;10355382;28;20129;-49
2024/02/10 09:54:43;;;;;;;34.38;10.35;;;21.90;46.50;;;;;;10357200;28;20050;-52
2024/02/10 09:59:46;;;;;;;29.55;9.50;;;22.00;46.30;;;;;;10358950;28;20048;-48
2024/02/10 10:04:48;;;;;;;20.15;8.80;;;22.00;46.10;;;;;;10361086;28;20052;-51
2024/02/10 10:09:49;;;;;;;24.33;8.43;;;22.00;46.00;;;;;;10365196;28;20416;-48
2024/02/10 10:14:53;;;;;;;20.85;7.72;;;22.10;45.90;;;;;;10361037;28;20393;-49
2024/02/10 10:20:04;;;;;;;20.42;7.82;;;22.10;45.80;;;;;;10359306;28;20522;-50
2024/02/10 10:25:06;;;;;;;15.82;7.10;;;22.10;45.80;;;;;;10358857;28;20052;-51
2024/02/10 10:30:12;;;;;;;13.32;6.60;;;22.10;45.70;;;;;;10356391;28;21000;-48
2024/02/10 10:35:14;;;;;;;14.43;5.95;;;22.10;45.60;;;;;;10356919;28;20057;-50
2024/02/10 10:40:16;;;;;;;11.55;5.75;;;22.10;45.70;;;;;;10352142;28;20050;-50
2024/02/10 10:45:19;;;;;;;11.32;5.72;;;22.10;45.70;;;;;;10352581;28;20042;-51
2024/02/10 10:50:21;;;;;;;10.13;5.78;;;22.20;45.50;;;;;;10353968;28;20071;-50
2024/02/10 10:55:27;;;;;;;9.93;5.65;;;22.20;45.30;;;;;;10357243;28;20145;-47
2024/02/10 11:00:30;;;;;;;11.68;5.35;;;22.20;45.20;;;;;;10357769;28;20053;-49
2024/02/10 11:05:34;;;;;;;8.13;4.78;;;22.20;45.30;;;;;;10354033;28;20129;-51
2024/02/10 11:10:36;;;;;;;10.57;5.43;;;22.20;45.20;;;;;;10353751;28;20049;-48
2024/02/10 11:15:40;;;;;;;7.55;4.97;;;22.20;45.10;;;;;;10358183;28;20053;-48
2024/02/10 11:20:42;;;;;;;10.77;5.18;;;22.20;45.10;;;;;;10360260;28;20042;-50
2024/02/10 11:25:43;;;;;;;7.90;5.00;;;22.30;45.00;;;;;;10354535;28;20203;-48
2024/02/10 11:30:46;;;;;;;8.23;4.60;;;22.20;44.80;;;;;;10355173;28;20041;-48
2024/02/10 11:35:48;;;;;;;7.80;5.03;;;22.20;44.90;;;;;;10350945;28;20046;-51
2024/02/10 11:40:50;;;;;;;8.25;4.63;;;22.30;44.80;;;;;;10354864;28;20046;-49
2024/02/10 11:45:53;;;;;;;7.70;4.85;;;22.20;44.70;;;;;;10355742;28;20060;-49
2024/02/10 11:50:55;;;;;;;7.85;4.75;;;22.30;44.70;;;;;;10353698;28;20456;-51
2024/02/10 11:55:56;;;;;;;6.90;4.72;;;22.40;44.30;;;;;;10354282;28;20617;-48
2024/02/10 12:00:59;;;;;;;6.18;4.35;;;22.50;44.30;;;;;;10347675;28;20038;-49
2024/02/10 12:06:02;;;;;;;7.50;4.35;;;22.40;44.30;;;;;;10347216;28;20130;-51
2024/02/10 12:11:04;;;;;;;6.28;4.20;;;22.40;44.50;;;;;;10358051;28;20133;-49
2024/02/10 12:16:10;;;;;;;5.85;4.47;;;22.40;44.10;;;;;;10354934;28;20522;-52
2024/02/10 12:21:12;;;;;;;9.40;4.55;;;22.60;43.60;;;;;;10356288;28;20042;-49
2024/02/10 12:26:14;;;;;;;6.65;4.35;;;22.70;43.80;;;;;;10350241;28;20496;-48
2024/02/10 12:31:18;;;;;;;9.50;4.30;;;22.50;44.50;;;;;;10359824;28;20046;-48
2024/02/10 12:36:23;;;;;;;9.52;4.15;;;22.30;45.20;;;;;;10358997;28;20046;-55
2024/02/10 12:41:25;;;;;;;8.88;3.83;;;22.40;45.20;;;;;;10359915;28;20064;-50
2024/02/10 12:46:28;;;;;;;7.65;4.28;;;22.40;45.20;;;;;;10354577;28;20128;-48
2024/02/10 12:51:32;;;;;;;12.75;4.68;;;22.50;45.40;;;;;;10356551;28;20527;-48
2024/02/10 12:56:33;;;;;;;7.18;4.18;;;22.90;45.20;;;;;;10357822;28;20076;-47
2024/02/10 13:01:36;;;;;;;9.73;4.60;;;23.10;44.20;;;;;;10366759;28;20056;-48
2024/02/10 13:06:40;;;;;;;21.63;4.97;;;23.20;44.60;;;;;;10363866;28;20049;-48
2024/02/10 13:11:41;;;;;;;11.80;4.65;;;22.90;46.00;;;;;;10361604;28;20140;-49
2024/02/10 13:16:44;;;;;;;24.88;5.38;;;22.70;46.10;;;;;;10362298;28;20049;-48
2024/02/10 13:21:46;;;;;;;16.17;5.90;;;22.80;47.60;;;;;;10360282;28;20052;-50
2024/02/10 13:26:49;;;;;;;12.38;4.80;;;22.60;47.30;;;;;;10363923;28;20464;-51
2024/02/10 13:31:54;;;;;;;14.63;4.50;;;22.60;46.70;;;;;;10344119;28;20050;-48
2024/02/10 14:03:13;;;;;;;12.93;4.07;;;22.50;44.70;;;;;;10362608;28;20038;-48
2024/02/10 14:13:39;;;;;;;7.88;4.22;;;22.50;44.70;;;;;;10358477;28;20050;-48
2024/02/10 14:18:43;;;;;;;7.45;3.45;;;22.50;44.90;;;;;;10312911;28;20109;-48
2024/02/10 14:23:45;;;;;;;5.38;3.17;;;22.60;45.00;;;;;;10351380;28;20133;-47
2024/02/10 14:28:53;;;;;;;6.32;3.08;;;22.60;45.20;;;;;;10322345;28;20507;-51
2024/02/10 14:34:00;;;;;;;5.75;3.45;;;22.70;45.20;;;;;;10319945;28;20410;-47
2024/02/10 14:39:06;;;;;;;5.65;2.70;;;22.70;45.30;;;;;;10356503;28;20046;-48
2024/02/10 14:44:09;;;;;;;4.20;2.67;;;22.70;45.50;;;;;;10351999;28;20050;-48
2024/02/10 14:49:13;;;;;;;4.32;2.80;;;22.70;45.50;;;;;;10357901;28;20046;-51
2024/02/10 14:54:16;;;;;;;8.35;2.70;;;22.70;45.70;;;;;;10362910;28;20081;-50
2024/02/10 14:59:19;;;;;;;6.25;3.00;;;22.70;45.70;;;;;;10359643;28;20048;-49
2024/02/10 15:04:22;;;;;;;5.07;2.75;;;22.70;45.70;;;;;;10362512;28;20046;-47
2024/02/10 15:09:24;;;;;;;4.07;2.55;;;22.60;45.70;;;;;;10359392;28;20158;-51
2024/02/10 15:14:28;;;;;;;3.00;2.50;;;22.60;45.80;;;;;;10357114;28;20048;-48
2024/02/10 15:19:32;;;;;;;3.08;2.75;;;22.60;45.90;;;;;;10353045;28;20523;-48
2024/02/10 15:24:34;;;;;;;5.10;3.08;;;22.60;45.90;;;;;;10350209;28;20101;-48
2024/02/10 15:29:35;;;;;;;3.83;2.60;;;22.70;45.90;;;;;;10355761;28;20050;-48
2024/02/10 15:34:38;;;;;;;3.83;2.42;;;22.70;45.80;;;;;;10361464;28;20042;-49
2024/02/10 15:39:41;;;;;;;3.05;2.40;;;22.80;45.80;;;;;;10356685;28;20049;-50
2024/02/10 15:44:45;;;;;;;3.15;2.10;;;22.70;45.80;;;;;;10361001;28;20045;-50
2024/02/10 15:49:54;;;;;;;2.95;2.20;;;22.70;45.80;;;;;;10358394;28;20073;-48
2024/02/10 15:54:56;;;;;;;3.13;2.30;;;22.70;45.70;;;;;;10349025;28;20046;-51
2024/02/10 15:59:57;;;;;;;2.42;2.03;;;22.70;45.80;;;;;;10351908;28;20129;-47
2024/02/10 16:05:00;;;;;;;2.25;1.92;;;22.80;45.70;;;;;;10362714;28;20130;-48
2024/02/10 16:10:03;;;;;;;3.03;2.30;;;22.80;45.60;;;;;;10356942;28;20135;-48
2024/02/10 16:15:05;;;;;;;2.90;2.20;;;22.80;45.70;;;;;;10361245;28;20084;-49
2024/02/10 16:20:11;;;;;;;3.03;2.30;;;22.80;45.70;;;;;;10356694;28;20128;-51
2024/02/10 16:25:13;;;;;;;2.88;2.25;;;22.80;45.70;;;;;;10354214;28;20584;-48
2024/02/10 16:30:16;;;;;;;3.33;2.20;;;22.80;45.70;;;;;;10352505;28;20134;-50
2024/02/10 16:35:23;;;;;;;2.58;2.20;;;22.80;45.70;;;;;;10347663;28;20154;-48
2024/02/10 16:40:29;;;;;;;4.57;2.78;;;22.70;45.70;;;;;;10352567;28;20042;-48
2024/02/10 16:45:31;;;;;;;2.80;2.45;;;22.70;45.70;;;;;;10358480;28;20050;-48
2024/02/10 16:50:38;;;;;;;3.83;2.20;;;22.80;45.60;;;;;;10360422;28;20041;-48
2024/02/10 16:55:40;;;;;;;3.25;2.30;;;22.80;46.30;;;;;;10359428;28;20053;-48
2024/02/10 17:00:42;;;;;;;5.68;2.50;;;22.90;45.90;;;;;;10358422;28;20049;-48
2024/02/10 17:05:48;;;;;;;5.70;2.80;;;22.90;47.40;;;;;;10354445;28;20133;-50
2024/02/10 17:10:50;;;;;;;12.73;3.50;;;22.90;47.40;;;;;;10354143;28;20618;-48
2024/02/10 17:15:51;;;;;;;7.72;3.03;;;23.00;47.20;;;;;;10357792;28;20049;-51
2024/02/10 17:20:56;;;;;;;12.15;3.33;;;23.00;47.40;;;;;;10359164;28;20049;-49
2024/02/10 17:25:58;;;;;;;15.30;3.38;;;23.10;47.70;;;;;;10358246;28;20580;-48
2024/02/10 17:31:00;;;;;;;22.45;3.45;;;23.40;47.10;;;;;;10358779;28;20041;-49
2024/02/10 17:36:04;;;;;;;16.02;3.72;;;23.40;47.00;;;;;;10361605;28;20141;-49
2024/02/10 17:41:10;;;;;;;19.17;3.78;;;23.60;47.00;;;;;;10353512;28;20053;-49
2024/02/10 17:46:12;;;;;;;21.73;3.55;;;23.60;46.80;;;;;;10353051;28;20103;-51
2024/02/10 17:51:14;;;;;;;17.42;3.40;;;23.60;47.10;;;;;;10359220;28;20055;-53
2024/02/10 17:56:16;;;;;;;26.38;3.80;;;23.50;47.90;;;;;;10361281;28;20042;-51
2024/02/10 18:01:21;;;;;;;15.90;3.60;;;23.50;48.30;;;;;;10358099;28;20046;-56
2024/02/10 18:06:25;;;;;;;18.25;4.05;;;23.50;48.70;;;;;;10363830;28;20172;-56
2024/02/10 18:11:26;;;;;;;31.33;3.50;;;23.50;49.00;;;;;;10362085;28;20571;-48
2024/02/10 18:16:28;;;;;;;16.15;3.08;;;23.60;49.30;;;;;;10356578;28;20596;-49
2024/02/10 18:21:31;;;;;;;12.73;3.03;;;23.90;48.70;;;;;;10359896;28;20060;-52
2024/02/10 18:26:33;;;;;;;9.70;2.47;;;24.00;48.10;;;;;;10360512;28;20096;-52
2024/02/10 18:31:34;;;;;;;10.15;2.58;;;24.30;47.50;;;;;;10361914;28;20080;-48
2024/02/10 18:36:38;;;;;;;14.98;2.80;;;24.40;47.20;;;;;;10362892;28;20060;-49
2024/02/10 18:41:40;;;;;;;11.30;2.50;;;24.50;46.80;;;;;;10361490;28;20050;-54
2024/02/10 18:46:41;;;;;;;12.43;2.67;;;24.50;46.70;;;;;;10358097;28;20080;-49
2024/02/10 18:51:44;;;;;;;10.32;2.50;;;24.70;46.10;;;;;;10355659;28;20054;-51
2024/02/10 18:56:46;;;;;;;12.90;2.85;;;24.70;45.70;;;;;;10354313;28;20085;-48
2024/02/10 19:01:49;;;;;;;13.43;2.50;;;24.70;45.70;;;;;;10357168;28;20049;-52
2024/02/10 19:06:52;;;;;;;7.60;2.30;;;24.50;45.70;;;;;;10353543;28;20054;-49
2024/02/10 19:11:56;;;;;;;9.52;2.28;;;24.50;45.70;;;;;;10355506;28;20060;-51
2024/02/10 19:16:59;;;;;;;7.82;2.05;;;24.50;45.40;;;;;;10358061;28;20435;-52
2024/02/10 19:22:02;;;;;;;9.35;2.47;;;24.50;45.50;;;;;;10360777;28;20130;-52
2024/02/10 19:27:04;;;;;;;10.43;2.15;;;24.40;45.70;;;;;;10355695;28;20097;-50
2024/02/10 19:32:07;;;;;;;11.35;2.17;;;24.40;45.60;;;;;;10354827;28;20046;-52
2024/02/10 19:37:10;;;;;;;4.40;2.15;;;24.30;45.60;;;;;;10355751;28;20124;-49
2024/02/10 19:42:12;;;;;;;4.45;2.38;;;24.10;45.90;;;;;;10362364;28;20053;-49
2024/02/10 19:47:15;;;;;;;3.17;1.77;;;24.20;46.00;;;;;;10363266;28;20053;-48
2024/02/10 19:52:18;;;;;;;4.82;2.00;;;24.20;46.20;;;;;;10356380;28;20052;-51
2024/02/10 19:57:20;;;;;;;6.03;2.15;;;24.10;46.10;;;;;;10361546;28;20066;-49
2024/02/10 20:02:22;;;;;;;4.47;2.22;;;24.20;46.00;;;;;;10358324;28;20052;-48
2024/02/10 20:07:30;;;;;;;4.78;2.08;;;24.10;46.00;;;;;;10359084;28;20418;-49
2024/02/10 20:12:32;;;;;;;5.53;2.05;;;24.00;46.20;;;;;;10355914;28;20404;-49
2024/02/10 20:17:33;;;;;;;9.65;3.53;;;24.10;46.30;;;;;;10356789;28;20045;-50
2024/02/10 20:22:37;;;;;;;40.90;8.52;;;23.90;46.70;;;;;;10354860;28;20076;-48
2024/02/10 20:27:38;;;;;;;58.75;13.43;;;24.00;46.70;;;;;;10352936;28;20492;-52
2024/02/10 20:32:40;;;;;;;77.20;16.40;;;24.00;46.90;;;;;;10350268;28;20054;-48
2024/02/10 20:37:43;;;;;;;63.42;17.17;;;23.80;47.20;;;;;;10354917;28;20057;-48
2024/02/10 20:42:48;;;;;;;71.85;18.55;;;23.90;47.10;;;;;;10355607;28;20500;-51
2024/02/10 20:47:50;;;;;;;62.00;17.08;;;23.80;47.20;;;;;;10354607;28;20108;-49
2024/02/10 20:52:54;;;;;;;55.63;16.85;;;23.70;47.70;;;;;;10359765;28;20519;-51
2024/02/10 20:57:57;;;;;;;72.68;16.05;;;23.50;47.40;;;;;;10358941;28;20061;-52
2024/02/10 21:03:00;;;;;;;55.63;16.00;;;23.50;47.60;;;;;;10353341;28;20095;-48
2024/02/10 21:08:04;;;;;;;44.70;14.20;;;23.50;47.70;;;;;;10356459;28;20498;-49
2024/02/10 21:13:05;;;;;;;49.30;14.98;;;23.30;47.90;;;;;;10350978;28;20133;-48
2024/02/10 21:18:08;;;;;;;44.65;13.57;;;23.20;48.10;;;;;;10360681;28;20517;-48
2024/02/10 21:23:11;;;;;;;46.40;13.80;;;23.10;48.20;;;;;;10361823;28;20149;-48
2024/02/10 21:28:12;;;;;;;45.83;12.35;;;23.20;48.10;;;;;;10357950;28;20156;-50
2024/02/10 21:33:15;;;;;;;37.22;11.98;;;23.00;48.50;;;;;;10361270;28;20056;-51
2024/02/10 21:38:18;;;;;;;39.88;12.10;;;23.20;48.20;;;;;;10363918;28;20050;-50
2024/02/10 21:43:20;;;;;;;42.10;11.25;;;23.10;48.10;;;;;;10357941;28;20049;-48
2024/02/10 21:48:22;;;;;;;39.72;11.13;;;23.00;48.40;;;;;;10354960;28;20562;-54
2024/02/10 21:53:25;;;;;;;37.20;10.68;;;22.90;48.50;;;;;;10357790;28;20496;-48
2024/02/10 21:58:27;;;;;;;30.23;9.88;;;23.00;48.40;;;;;;10358950;28;20050;-47
2024/02/10 22:03:32;;;;;;;30.83;10.25;;;22.70;48.50;;;;;;10364885;28;20086;-50
2024/02/10 22:08:34;;;;;;;27.05;9.57;;;22.80;48.30;;;;;;10360376;28;20050;-47
2024/02/10 22:13:36;;;;;;;28.38;9.27;;;22.90;48.00;;;;;;10362683;28;20050;-49
2024/02/10 22:18:38;;;;;;;24.67;8.88;;;22.90;47.70;;;;;;10359391;28;20423;-48
2024/02/10 22:23:41;;;;;;;30.27;9.13;;;22.80;47.80;;;;;;10356030;28;20057;-50
2024/02/10 22:28:44;;;;;;;24.83;8.38;;;22.70;47.90;;;;;;10355876;28;20074;-49
2024/02/10 22:33:45;;;;;;;27.92;9.30;;;22.50;48.10;;;;;;10318119;28;20061;-51
2024/02/10 22:38:48;;;;;;;19.05;7.53;;;22.30;48.40;;;;;;10350200;28;20464;-48
2024/02/10 22:43:50;;;;;;;24.95;8.20;;;22.30;48.30;;;;;;10320221;28;20062;-51
2024/02/10 22:48:52;;;;;;;19.48;8.23;;;22.20;48.20;;;;;;10355622;28;20404;-48
2024/02/10 22:53:55;;;;;;;20.63;7.30;;;22.20;48.20;;;;;;10314206;28;20050;-50
2024/02/10 22:58:56;;;;;;;21.42;7.68;;;22.20;48.10;;;;;;10317867;28;20058;-48
2024/02/10 23:03:58;;;;;;;17.75;7.20;;;22.20;47.80;;;;;;10315951;28;20133;-51
2024/02/10 23:09:01;;;;;;;17.90;7.38;;;22.20;47.90;;;;;;10319006;28;20106;-49
2024/02/10 23:14:03;;;;;;;18.27;7.57;;;22.20;47.80;;;;;;10347048;28;20496;-49
2024/02/10 23:19:07;;;;;;;15.88;6.65;;;21.90;48.00;;;;;;10319523;28;20419;-47
2024/02/10 23:24:10;;;;;;;17.20;6.65;;;21.90;48.10;;;;;;10361227;28;20049;-48
2024/02/10 23:29:12;;;;;;;16.65;6.80;;;22.00;47.90;;;;;;10355802;28;20438;-48
2024/02/10 23:34:13;;;;;;;16.02;6.60;;;22.00;47.80;;;;;;10352866;28;20146;-48
2024/02/10 23:39:20;;;;;;;15.98;6.55;;;22.00;47.50;;;;;;10354854;28;20052;-49
2024/02/10 23:44:22;;;;;;;15.15;6.57;;;22.00;47.50;;;;;;10352968;28;20046;-48
2024/02/10 23:49:24;;;;;;;15.55;6.68;;;22.10;47.30;;;;;;10354605;28;20112;-51
2024/02/10 23:54:26;;;;;;;12.80;5.72;;;21.90;47.40;;;;;;10357690;28;20095;-50
2024/02/10 23:59:28;;;;;;;13.65;5.70;;;21.90;47.40;;;;;;10353942;28;20050;-47
